createdAt,value
2019-02-20T00:00:10.457Z,7.00
2019-02-20T00:02:38.966Z,6.80
2019-02-20T00:05:07.640Z,6.70
2019-02-20T00:07:36.334Z,6.60
2019-02-20T00:10:04.987Z,6.50
2019-02-20T00:12:33.638Z,6.70
2019-02-20T00:15:02.337Z,6.70
2019-02-20T00:17:30.897Z,6.70
2019-02-20T00:19:59.555Z,6.70
2019-02-20T00:22:28.271Z,6.80
2019-02-20T00:24:56.910Z,6.90
2019-02-20T00:27:25.580Z,6.80
2019-02-20T00:29:54.215Z,6.90
2019-02-20T00:32:22.883Z,6.90
2019-02-20T00:34:51.450Z,6.90
2019-02-20T00:37:20.169Z,6.80
2019-02-20T00:39:48.736Z,6.70
2019-02-20T00:42:17.319Z,6.90
2019-02-20T00:44:48.084Z,6.70
2019-02-20T00:47:18.321Z,6.70
2019-02-20T00:49:46.978Z,6.80
2019-02-20T00:52:23.391Z,6.90
2019-02-20T00:54:52.044Z,7.00
2019-02-20T00:57:20.708Z,7.10
2019-02-20T00:59:49.438Z,7.00
2019-02-20T01:02:18.001Z,7.10
2019-02-20T01:04:46.654Z,7.10
2019-02-20T01:07:15.362Z,6.90
2019-02-20T01:09:44.001Z,6.60
2019-02-20T01:12:12.770Z,6.80
2019-02-20T01:14:41.472Z,6.80
2019-02-20T01:17:10.140Z,6.90
2019-02-20T01:19:38.758Z,6.90
2019-02-20T01:22:07.386Z,6.90
2019-02-20T01:24:36.018Z,6.90
2019-02-20T01:27:04.657Z,6.80
2019-02-20T01:29:33.291Z,6.70
2019-02-20T01:32:01.956Z,6.80
2019-02-20T01:34:30.598Z,6.80
2019-02-20T01:36:59.295Z,6.70
2019-02-20T01:39:27.942Z,6.60
2019-02-20T01:41:56.593Z,6.70
2019-02-20T01:44:25.291Z,6.70
2019-02-20T01:46:54.531Z,6.40
2019-02-20T01:49:23.186Z,6.20
2019-02-20T01:51:51.872Z,6.40
2019-02-20T01:54:20.465Z,6.50
2019-02-20T01:56:49.124Z,6.50
2019-02-20T01:59:17.856Z,6.40
2019-02-20T02:01:46.414Z,6.40
2019-02-20T02:04:14.977Z,6.30
2019-02-20T02:06:43.695Z,6.20
2019-02-20T02:09:12.390Z,6.30
2019-02-20T02:11:41.027Z,6.30
2019-02-20T02:14:09.740Z,6.30
2019-02-20T02:16:38.397Z,6.30
2019-02-20T02:19:07.060Z,6.30
2019-02-20T02:21:35.773Z,6.40
2019-02-20T02:24:04.423Z,6.40
2019-02-20T02:26:33.082Z,6.30
2019-02-20T02:29:01.794Z,6.30
2019-02-20T02:31:30.446Z,6.40
2019-02-20T02:33:59.084Z,6.40
2019-02-20T02:36:27.798Z,6.20
2019-02-20T02:38:56.361Z,6.10
2019-02-20T02:41:25.014Z,6.00
2019-02-20T02:43:53.705Z,6.00
2019-02-20T02:46:22.374Z,6.10
2019-02-20T02:48:51.969Z,6.30
2019-02-20T02:51:20.686Z,6.30
2019-02-20T02:53:49.314Z,6.30
2019-02-20T02:56:17.894Z,6.20
2019-02-20T02:58:46.593Z,6.10
2019-02-20T03:01:15.263Z,5.90
2019-02-20T03:03:43.903Z,5.90
2019-02-20T03:06:12.548Z,5.70
2019-02-20T03:08:41.198Z,5.70
2019-02-20T03:11:09.842Z,5.60
2019-02-20T03:13:38.550Z,5.50
2019-02-20T03:16:07.199Z,5.50
2019-02-20T03:18:35.846Z,5.50
2019-02-20T03:21:04.475Z,5.50
2019-02-20T03:23:40.035Z,5.40
2019-02-20T03:26:03.438Z,5.50
2019-02-20T03:28:32.132Z,5.50
2019-02-20T03:31:00.808Z,5.70
2019-02-20T03:33:29.426Z,5.90
2019-02-20T03:35:58.151Z,5.90
2019-02-20T03:38:30.348Z,5.90
2019-02-20T03:40:57.097Z,5.90
2019-02-20T03:43:25.824Z,5.80
2019-02-20T03:45:54.456Z,5.80
2019-02-20T03:48:23.035Z,5.70
2019-02-20T03:50:51.753Z,5.50
2019-02-20T03:53:20.390Z,5.40
2019-02-20T03:55:48.975Z,5.30
2019-02-20T03:58:17.688Z,5.20
2019-02-20T04:00:46.266Z,5.20
2019-02-20T04:03:14.923Z,5.20
2019-02-20T04:05:43.572Z,5.40
2019-02-20T04:08:12.208Z,5.60
2019-02-20T04:10:40.780Z,5.70
2019-02-20T04:13:09.488Z,5.90
2019-02-20T04:15:38.183Z,5.90
2019-02-20T04:18:06.850Z,5.90
2019-02-20T04:20:35.553Z,5.90
2019-02-20T04:23:04.213Z,6.00
2019-02-20T04:25:32.858Z,5.90
2019-02-20T04:28:01.484Z,6.00
2019-02-20T04:30:30.131Z,6.10
2019-02-20T04:32:58.722Z,6.00
2019-02-20T04:35:27.353Z,6.00
2019-02-20T04:37:56.010Z,6.00
2019-02-20T04:40:24.650Z,6.00
2019-02-20T04:42:53.372Z,6.10
2019-02-20T04:45:22.025Z,6.00
2019-02-20T04:47:50.689Z,6.10
2019-02-20T04:50:19.388Z,6.20
2019-02-20T04:52:48.845Z,6.30
2019-02-20T04:55:17.494Z,6.30
2019-02-20T04:57:46.204Z,6.30
2019-02-20T05:00:14.861Z,6.40
2019-02-20T05:02:43.424Z,6.50
2019-02-20T05:05:12.104Z,6.50
2019-02-20T05:07:40.765Z,6.30
2019-02-20T05:10:10.504Z,6.40
2019-02-20T05:12:39.148Z,6.50
2019-02-20T05:15:07.723Z,6.40
2019-02-20T05:17:36.280Z,6.40
2019-02-20T05:20:07.971Z,6.40
2019-02-20T05:22:36.610Z,6.50
2019-02-20T05:25:05.672Z,6.50
2019-02-20T05:27:34.408Z,6.60
2019-02-20T05:30:03.059Z,6.60
2019-02-20T05:32:31.691Z,6.70
2019-02-20T05:35:00.523Z,6.70
2019-02-20T05:37:29.377Z,6.80
2019-02-20T05:39:57.951Z,6.80
2019-02-20T05:42:26.670Z,6.90
2019-02-20T05:44:55.320Z,6.90
2019-02-20T05:47:23.894Z,6.80
2019-02-20T05:49:52.600Z,7.00
2019-02-20T05:52:21.236Z,7.00
2019-02-20T05:54:50.766Z,7.00
2019-02-20T05:57:19.479Z,7.00
2019-02-20T05:59:48.032Z,6.90
2019-02-20T06:02:16.678Z,7.00
2019-02-20T06:04:45.318Z,7.10
2019-02-20T06:07:13.958Z,7.10
2019-02-20T06:09:42.531Z,7.00
2019-02-20T06:12:11.237Z,7.00
2019-02-20T06:14:39.879Z,7.20
2019-02-20T06:17:08.523Z,7.20
2019-02-20T06:19:37.210Z,7.20
2019-02-20T06:22:05.866Z,7.10
2019-02-20T06:24:43.656Z,7.20
2019-02-20T06:27:04.876Z,7.20
2019-02-20T06:29:33.451Z,7.10
2019-02-20T06:32:02.076Z,7.10
2019-02-20T06:34:30.797Z,7.10
2019-02-20T06:36:59.451Z,7.10
2019-02-20T06:39:28.082Z,7.10
2019-02-20T06:41:56.717Z,7.10
2019-02-20T06:44:25.303Z,7.10
2019-02-20T06:46:53.937Z,7.10
2019-02-20T06:49:22.625Z,7.10
2019-02-20T06:51:51.311Z,7.10
2019-02-20T06:54:19.903Z,7.20
2019-02-20T06:56:50.254Z,7.30
2019-02-20T06:59:19.033Z,7.40
2019-02-20T07:01:48.136Z,7.40
2019-02-20T07:04:16.814Z,7.30
2019-02-20T07:06:48.574Z,7.30
2019-02-20T07:09:53.260Z,7.40
2019-02-20T07:12:34.101Z,7.50
2019-02-20T07:15:14.731Z,7.50
2019-02-20T07:18:01.126Z,7.60
2019-02-20T07:20:49.407Z,7.60
2019-02-20T07:23:23.717Z,7.70
2019-02-20T07:26:12.115Z,7.60
2019-02-20T07:28:46.953Z,7.60
2019-02-20T07:31:15.665Z,7.60
2019-02-20T07:33:44.248Z,7.60
2019-02-20T07:36:12.900Z,7.60
2019-02-20T07:38:41.605Z,7.70
2019-02-20T07:41:10.294Z,7.70
2019-02-20T07:43:38.970Z,7.70
2019-02-20T07:46:07.687Z,7.70
2019-02-20T07:48:36.344Z,7.80
2019-02-20T07:51:05.009Z,7.90
2019-02-20T07:53:33.692Z,8.00
2019-02-20T07:56:02.328Z,7.90
2019-02-20T07:58:31.645Z,7.90
2019-02-20T08:01:01.891Z,8.00
2019-02-20T08:03:30.535Z,8.10
2019-02-20T08:05:59.198Z,8.10
2019-02-20T08:08:27.915Z,8.10
2019-02-20T08:10:56.583Z,8.20
2019-02-20T08:13:25.231Z,8.20
2019-02-20T08:15:53.944Z,8.20
2019-02-20T08:18:22.595Z,8.30
2019-02-20T08:20:51.234Z,8.20
2019-02-20T08:23:19.956Z,8.30
2019-02-20T08:25:48.617Z,8.40
2019-02-20T08:28:17.208Z,8.50
2019-02-20T08:30:45.820Z,8.60
2019-02-20T08:33:14.517Z,8.70
2019-02-20T08:35:43.099Z,8.60
2019-02-20T08:38:11.798Z,8.70
2019-02-20T08:40:40.434Z,8.70
2019-02-20T08:43:09.028Z,8.80
2019-02-20T08:45:37.639Z,9.00
2019-02-20T08:48:06.305Z,9.10
2019-02-20T08:50:34.937Z,9.10
2019-02-20T08:53:03.683Z,9.10
2019-02-20T08:55:32.535Z,9.10
2019-02-20T08:58:01.231Z,9.10
2019-02-20T09:00:30.756Z,9.10
2019-02-20T09:02:59.406Z,9.10
2019-02-20T09:05:27.979Z,9.40
2019-02-20T09:07:56.677Z,9.30
2019-02-20T09:10:25.359Z,9.20
2019-02-20T09:12:54.078Z,9.30
2019-02-20T09:15:22.687Z,9.10
2019-02-20T09:17:51.375Z,9.00
2019-02-20T09:20:20.097Z,9.00
2019-02-20T09:22:48.830Z,9.00
2019-02-20T09:25:19.860Z,9.20
2019-02-20T09:27:47.785Z,9.40
2019-02-20T09:30:16.583Z,9.50
2019-02-20T09:32:45.231Z,9.60
2019-02-20T09:35:13.894Z,9.70
2019-02-20T09:37:42.633Z,9.80
2019-02-20T09:40:14.400Z,9.70
2019-02-20T09:42:44.250Z,9.40
2019-02-20T09:45:12.883Z,9.50
2019-02-20T09:47:41.536Z,9.60
2019-02-20T09:50:10.298Z,9.50
2019-02-20T09:52:39.011Z,9.50
2019-02-20T09:55:10.459Z,9.50
2019-02-20T09:57:39.110Z,9.40
2019-02-20T10:00:16.322Z,9.50
2019-02-20T10:02:47.267Z,9.50
2019-02-20T10:05:15.819Z,9.70
2019-02-20T10:07:44.517Z,9.80
2019-02-20T10:10:13.364Z,10.10
2019-02-20T10:12:42.048Z,10.10
2019-02-20T10:15:13.551Z,10.10
2019-02-20T10:17:42.225Z,10.10
2019-02-20T10:20:11.470Z,10.10
2019-02-20T10:22:40.199Z,10.10
2019-02-20T10:25:13.142Z,9.90
2019-02-20T10:27:41.791Z,9.90
2019-02-20T10:30:13.276Z,9.90
2019-02-20T10:32:41.918Z,10.00
2019-02-20T10:35:10.978Z,9.90
2019-02-20T10:37:39.903Z,9.80
2019-02-20T10:40:10.116Z,9.80
2019-02-20T10:42:38.763Z,9.90
2019-02-20T10:45:12.476Z,9.80
2019-02-20T10:47:41.038Z,9.70
2019-02-20T10:50:11.612Z,9.80
2019-02-20T10:52:40.314Z,10.10
2019-02-20T10:55:09.767Z,10.20
2019-02-20T10:57:38.418Z,10.30
2019-02-20T11:00:23.385Z,10.20
2019-02-20T11:02:46.539Z,10.10
2019-02-20T11:05:15.266Z,10.30
2019-02-20T11:07:43.915Z,10.50
2019-02-20T11:10:12.564Z,10.70
2019-02-20T11:12:41.227Z,10.60
2019-02-20T11:15:09.930Z,10.60
2019-02-20T11:17:38.582Z,10.80
2019-02-20T11:20:10.038Z,11.10
2019-02-20T11:22:38.747Z,11.20
2019-02-20T11:25:10.109Z,11.10
2019-02-20T11:27:40.326Z,11.50
2019-02-20T11:30:14.649Z,11.60
2019-02-20T11:32:43.316Z,12.10
2019-02-20T11:35:11.966Z,12.20
2019-02-20T11:37:40.685Z,12.20
2019-02-20T11:40:10.233Z,12.40
2019-02-20T11:42:38.897Z,12.60
2019-02-20T11:45:10.702Z,12.60
2019-02-20T11:47:39.349Z,12.90
2019-02-20T11:50:09.618Z,13.30
2019-02-20T11:52:38.733Z,13.80
2019-02-20T11:55:12.420Z,14.30
2019-02-20T11:57:41.088Z,14.90
2019-02-20T12:00:14.829Z,15.00
2019-02-20T12:02:43.466Z,15.50
2019-02-20T12:05:12.106Z,15.50
2019-02-20T12:07:40.869Z,15.30
2019-02-20T12:10:15.364Z,15.50
2019-02-20T12:12:43.918Z,16.30
2019-02-20T12:15:12.645Z,16.40
2019-02-20T12:17:41.297Z,17.10
2019-02-20T12:20:09.879Z,16.60
2019-02-20T12:22:38.574Z,15.90
2019-02-20T12:25:09.026Z,15.60
2019-02-20T12:27:37.668Z,15.30
2019-02-20T12:30:11.301Z,15.10
2019-02-20T12:32:39.889Z,15.00
2019-02-20T12:35:09.324Z,14.70
2019-02-20T12:37:38.032Z,14.80
2019-02-20T12:40:10.893Z,15.00
2019-02-20T12:42:39.552Z,14.90
2019-02-20T12:45:09.281Z,15.00
2019-02-20T12:47:37.857Z,14.50
2019-02-20T12:50:09.568Z,14.40
2019-02-20T12:52:38.270Z,13.60
2019-02-20T12:55:07.722Z,13.60
2019-02-20T12:57:36.407Z,13.70
2019-02-20T13:00:11.052Z,13.90
2019-02-20T13:02:39.701Z,14.20
2019-02-20T13:05:08.449Z,14.60
2019-02-20T13:07:37.176Z,14.80
2019-02-20T13:10:07.420Z,14.50
2019-02-20T13:12:36.066Z,14.20
2019-02-20T13:15:06.966Z,13.60
2019-02-20T13:17:35.633Z,13.30
2019-02-20T13:20:04.693Z,13.10
2019-02-20T13:22:33.398Z,12.90
2019-02-20T13:25:04.014Z,12.80
2019-02-20T13:27:32.342Z,12.90
2019-02-20T13:30:00.986Z,13.20
2019-02-20T13:32:29.621Z,13.40
2019-02-20T13:34:58.192Z,13.40
2019-02-20T13:37:26.885Z,13.50
2019-02-20T13:39:55.481Z,13.70
2019-02-20T13:42:24.118Z,13.60
2019-02-20T13:44:53.873Z,14.00
2019-02-20T13:47:22.714Z,14.10
2019-02-20T13:49:51.380Z,14.10
2019-02-20T13:52:20.017Z,14.10
2019-02-20T13:54:48.673Z,14.00
2019-02-20T13:57:17.713Z,13.90
2019-02-20T13:59:46.405Z,14.00
2019-02-20T14:02:15.054Z,13.40
2019-02-20T14:04:43.718Z,13.30
2019-02-20T14:07:12.410Z,13.50
2019-02-20T14:09:40.978Z,13.80
2019-02-20T14:12:09.583Z,13.90
2019-02-20T14:14:38.901Z,13.80
2019-02-20T14:17:07.550Z,13.30
2019-02-20T14:19:36.208Z,13.10
2019-02-20T14:22:04.910Z,13.20
2019-02-20T14:24:33.576Z,13.40
2019-02-20T14:27:10.231Z,13.50
2019-02-20T14:29:32.497Z,13.50
2019-02-20T14:32:01.163Z,13.40
2019-02-20T14:34:29.657Z,13.40
2019-02-20T14:36:58.359Z,13.50
2019-02-20T14:39:27.019Z,13.50
2019-02-20T14:41:55.657Z,13.50
2019-02-20T14:44:24.357Z,13.40
2019-02-20T14:46:53.534Z,13.20
2019-02-20T14:49:22.194Z,13.10
2019-02-20T14:51:50.876Z,13.10
2019-02-20T14:54:19.542Z,13.20
2019-02-20T14:56:48.196Z,13.20
2019-02-20T14:59:16.830Z,13.20
2019-02-20T15:01:45.480Z,13.20
2019-02-20T15:04:14.140Z,13.10
2019-02-20T15:06:42.847Z,12.90
2019-02-20T15:09:11.408Z,12.80
2019-02-20T15:11:40.054Z,12.80
2019-02-20T15:14:09.746Z,12.90
2019-02-20T15:16:38.326Z,12.80
2019-02-20T15:19:07.366Z,12.60
2019-02-20T15:21:36.005Z,12.60
2019-02-20T15:24:04.654Z,12.60
2019-02-20T15:26:33.326Z,12.60
2019-02-20T15:29:01.956Z,12.60
2019-02-20T15:31:33.795Z,12.60
2019-02-20T15:34:00.929Z,12.60
2019-02-20T15:36:29.559Z,12.40
2019-02-20T15:38:58.216Z,12.50
2019-02-20T15:41:26.856Z,12.40
2019-02-20T15:43:55.551Z,12.20
2019-02-20T15:46:24.120Z,12.20
2019-02-20T15:48:52.760Z,12.10
2019-02-20T15:51:21.893Z,12.00
2019-02-20T15:53:50.520Z,11.90
2019-02-20T15:56:19.161Z,11.80
2019-02-20T15:58:47.870Z,11.80
2019-02-20T16:01:16.526Z,11.70
2019-02-20T16:03:45.163Z,11.60
2019-02-20T16:06:13.866Z,11.50
2019-02-20T16:08:42.928Z,11.50
2019-02-20T16:11:11.584Z,11.40
2019-02-20T16:13:41.855Z,11.40
2019-02-20T16:16:11.326Z,11.30
2019-02-20T16:18:39.966Z,11.30
2019-02-20T16:21:10.888Z,11.30
2019-02-20T16:23:42.632Z,11.20
2019-02-20T16:26:14.336Z,11.10
2019-02-20T16:28:43.051Z,11.10
2019-02-20T16:31:11.700Z,10.90
2019-02-20T16:33:41.850Z,10.90
2019-02-20T16:36:10.535Z,10.80
2019-02-20T16:38:39.790Z,10.70
2019-02-20T16:41:08.431Z,10.70
2019-02-20T16:43:37.131Z,10.60
2019-02-20T16:46:05.731Z,10.60
2019-02-20T16:48:34.362Z,10.50
2019-02-20T16:51:03.057Z,10.50
2019-02-20T16:53:31.709Z,10.40
2019-02-20T16:56:00.871Z,10.40
2019-02-20T16:58:29.484Z,10.30
2019-02-20T17:00:58.134Z,10.20
2019-02-20T17:03:26.786Z,10.10
2019-02-20T17:05:55.472Z,10.10
2019-02-20T17:08:24.136Z,10.00
2019-02-20T17:10:53.206Z,10.00
2019-02-20T17:13:21.904Z,9.80
2019-02-20T17:15:50.550Z,9.80
2019-02-20T17:18:19.186Z,9.80
2019-02-20T17:20:47.826Z,9.80
2019-02-20T17:23:16.460Z,9.80
2019-02-20T17:25:45.099Z,9.70
2019-02-20T17:28:14.108Z,9.70
2019-02-20T17:30:42.736Z,9.70
2019-02-20T17:33:11.390Z,9.60
2019-02-20T17:35:40.081Z,9.60
2019-02-20T17:38:08.746Z,9.70
2019-02-20T17:40:37.387Z,9.60
2019-02-20T17:43:06.908Z,9.60
2019-02-20T17:45:35.824Z,9.50
2019-02-20T17:48:04.475Z,9.50
2019-02-20T17:50:33.181Z,9.50
2019-02-20T17:53:01.736Z,9.40
2019-02-20T17:55:30.407Z,9.40
2019-02-20T17:57:59.024Z,9.30
2019-02-20T18:00:33.127Z,9.40
2019-02-20T18:03:01.774Z,9.30
2019-02-20T18:05:30.867Z,9.30
2019-02-20T18:07:59.510Z,9.20
2019-02-20T18:10:28.071Z,9.30
2019-02-20T18:12:56.780Z,9.30
2019-02-20T18:15:25.360Z,9.30
2019-02-20T18:17:54.056Z,9.30
2019-02-20T18:20:22.771Z,9.20
2019-02-20T18:22:51.336Z,9.10
2019-02-20T18:25:19.982Z,9.10
2019-02-20T18:27:48.688Z,9.00
2019-02-20T18:30:17.330Z,8.90
2019-02-20T18:32:45.993Z,8.90
2019-02-20T18:35:17.260Z,8.80
2019-02-20T18:37:45.902Z,8.70
2019-02-20T18:40:17.010Z,8.70
2019-02-20T18:42:45.708Z,8.70
2019-02-20T18:45:16.003Z,8.60
2019-02-20T18:47:44.880Z,8.60
2019-02-20T18:50:14.903Z,8.50
2019-02-20T18:52:43.547Z,8.40
2019-02-20T18:55:15.145Z,8.40
2019-02-20T18:57:43.837Z,8.40
2019-02-20T19:00:19.974Z,8.40
2019-02-20T19:02:48.654Z,8.30
2019-02-20T19:05:18.895Z,8.30
2019-02-20T19:07:47.660Z,8.30
2019-02-20T19:10:22.144Z,8.30
2019-02-20T19:13:05.789Z,8.30
2019-02-20T19:15:43.312Z,8.20
2019-02-20T19:18:29.831Z,8.20
2019-02-20T19:21:20.827Z,8.20
2019-02-20T19:24:24.216Z,8.20
2019-02-20T19:27:02.092Z,8.20
2019-02-20T19:29:53.409Z,8.20
2019-02-20T19:32:40.320Z,8.20
2019-02-20T19:35:33.089Z,8.10
2019-02-20T19:38:13.860Z,8.00
2019-02-20T19:41:04.942Z,8.00
2019-02-20T19:43:42.650Z,8.00
2019-02-20T19:46:26.315Z,8.00
2019-02-20T19:49:06.994Z,7.90
2019-02-20T19:51:41.574Z,7.90
2019-02-20T19:54:19.160Z,7.90
2019-02-20T19:57:00.051Z,7.90
2019-02-20T19:59:37.458Z,7.90
2019-02-20T20:02:09.199Z,7.80
2019-02-20T20:04:49.637Z,7.80
2019-02-20T20:07:49.182Z,7.80
2019-02-20T20:10:23.684Z,7.70
2019-02-20T20:13:07.347Z,7.80
2019-02-20T20:15:53.994Z,7.80
2019-02-20T20:18:31.683Z,7.80
2019-02-20T20:21:06.476Z,7.80
2019-02-20T20:23:44.413Z,7.70
2019-02-20T20:26:22.505Z,7.80
2019-02-20T20:29:05.860Z,7.70
2019-02-20T20:31:36.499Z,7.60
2019-02-20T20:34:26.210Z,7.50
2019-02-20T20:36:58.037Z,7.50
2019-02-20T20:39:46.381Z,7.50
2019-02-20T20:42:48.780Z,7.40
2019-02-20T20:45:23.490Z,7.40
2019-02-20T20:48:12.081Z,7.50
2019-02-20T20:51:00.259Z,7.40
2019-02-20T20:53:52.990Z,7.40
2019-02-20T20:56:24.740Z,7.40
2019-02-20T20:59:02.256Z,7.50
2019-02-20T21:01:43.022Z,7.50
2019-02-20T21:04:32.653Z,7.40
2019-02-20T21:07:33.215Z,7.40
2019-02-20T21:10:13.822Z,7.40
2019-02-20T21:13:01.029Z,7.30
2019-02-20T21:15:52.500Z,7.30
2019-02-20T21:18:36.160Z,7.30
2019-02-20T21:21:22.832Z,7.40
2019-02-20T21:23:57.189Z,7.40
2019-02-20T21:26:31.561Z,7.30
2019-02-20T21:29:09.127Z,7.30
2019-02-20T21:32:00.844Z,7.30
2019-02-20T21:34:56.587Z,7.30
2019-02-20T21:37:45.054Z,7.40
2019-02-20T21:40:33.280Z,7.40
2019-02-20T21:43:26.166Z,7.60
2019-02-20T21:46:31.354Z,7.60
2019-02-20T21:49:15.339Z,7.70
2019-02-20T21:52:01.924Z,7.80
2019-02-20T21:54:39.452Z,7.60
2019-02-20T21:57:29.359Z,7.40
2019-02-20T22:00:17.796Z,7.30
2019-02-20T22:02:58.577Z,7.50
2019-02-20T22:05:42.325Z,7.50
2019-02-20T22:08:35.184Z,7.40
2019-02-20T22:11:12.527Z,7.30
2019-02-20T22:14:20.360Z,7.50
2019-02-20T22:17:14.716Z,7.50
2019-02-20T22:20:01.386Z,7.60
2019-02-20T22:22:54.015Z,7.40
2019-02-20T22:25:55.806Z,7.20
2019-02-20T22:28:27.630Z,7.20
2019-02-20T22:30:59.395Z,7.20
2019-02-20T22:33:31.197Z,7.30
2019-02-20T22:36:37.788Z,7.30
2019-02-20T22:39:30.514Z,7.40
2019-02-20T22:42:25.394Z,7.20
2019-02-20T22:45:09.053Z,7.10
2019-02-20T22:47:58.549Z,7.10
2019-02-20T22:50:39.103Z,7.10
2019-02-20T22:53:10.853Z,7.20
2019-02-20T22:55:54.335Z,7.10
2019-02-20T22:58:28.716Z,7.10
2019-02-20T23:01:24.494Z,7.20
2019-02-20T23:04:08.447Z,7.10
2019-02-20T23:06:49.000Z,7.00
2019-02-20T23:09:32.358Z,6.80
2019-02-20T23:12:12.657Z,6.80
2019-02-20T23:14:58.330Z,6.70
2019-02-20T23:17:28.236Z,6.90
2019-02-20T23:19:57.000Z,6.90
2019-02-20T23:22:25.645Z,7.00
2019-02-20T23:24:54.352Z,6.90
2019-02-20T23:27:23.003Z,6.90
2019-02-20T23:29:51.654Z,6.90
2019-02-20T23:32:20.367Z,6.90
2019-02-20T23:34:49.016Z,6.90
2019-02-20T23:37:17.664Z,7.10
2019-02-20T23:39:46.360Z,7.20
2019-02-20T23:42:15.014Z,7.10
2019-02-20T23:44:43.608Z,7.10
2019-02-20T23:47:12.306Z,7.10
2019-02-20T23:49:40.877Z,7.00
2019-02-20T23:52:09.571Z,7.10
2019-02-20T23:54:38.262Z,7.00
2019-02-20T23:57:06.916Z,7.00
2019-02-20T23:59:35.577Z,6.90
